Terminal Aerodrome Forecast
Issued by NWS

Home | Current Version | Previous Version | Text Only | Print | Product List | Glossary On
Versions: 1 2 3 4 5 6 7 8 9 10 11 12 13 14 15
000
FTUS46 KPDT 281120
TAFDLS
TAF
KDLS 281120Z 2812/2912 VRB03KT P6SM SCT250
     FM281500 31009KT P6SM FEW060 SCT100 BKN250
     FM281800 30015G25KT P6SM SCT060 BKN100 BKN250
     FM282200 30020G30KT P6SM BKN100 BKN250
     FM290300 29012KT P6SM SCT080 BKN250
     FM290800 29010KT P6SM FEW040=

USA.gov is the U.S. government's official web portal to all federal, state and local government web resources and services.